createdAt,value
2018-05-01T00:00:38.282Z,13.86
2018-05-01T00:03:05.676Z,13.89
2018-05-01T00:05:32.087Z,13.80
2018-05-01T00:07:58.441Z,13.74
2018-05-01T00:10:24.879Z,13.70
2018-05-01T00:12:51.262Z,13.61
2018-05-01T00:15:17.678Z,13.73
2018-05-01T00:17:44.891Z,13.63
2018-05-01T00:20:11.398Z,13.67
2018-05-01T00:22:37.795Z,13.45
2018-05-01T00:25:04.988Z,13.59
2018-05-01T00:27:31.378Z,13.65
2018-05-01T00:29:58.562Z,13.57
2018-05-01T00:32:25.040Z,13.66
2018-05-01T00:34:52.195Z,13.78
2018-05-01T00:37:19.348Z,13.63
2018-05-01T00:39:46.578Z,13.67
2018-05-01T00:42:13.773Z,13.63
2018-05-01T00:44:40.254Z,13.50
2018-05-01T00:47:07.416Z,13.44
2018-05-01T00:49:34.078Z,13.47
2018-05-01T00:52:01.237Z,13.44
2018-05-01T00:54:28.493Z,13.48
2018-05-01T00:56:55.613Z,13.38
2018-05-01T00:59:23.474Z,13.39
2018-05-01T01:01:49.866Z,13.39
2018-05-01T01:04:16.601Z,13.31
2018-05-01T01:06:43.078Z,13.31
2018-05-01T01:09:09.669Z,13.27
2018-05-01T01:11:36.115Z,13.21
2018-05-01T01:14:02.513Z,13.09
2018-05-01T01:16:28.903Z,13.14
2018-05-01T01:18:56.137Z,13.21
2018-05-01T01:21:22.666Z,13.12
2018-05-01T01:23:49.147Z,13.09
2018-05-01T01:26:16.249Z,13.17
2018-05-01T01:28:42.731Z,13.22
2018-05-01T01:31:09.906Z,13.27
2018-05-01T01:33:36.289Z,13.21
2018-05-01T01:36:02.671Z,13.09
2018-05-01T01:38:28.804Z,13.01
2018-05-01T01:40:54.957Z,13.01
2018-05-01T01:43:21.073Z,12.88
2018-05-01T01:45:47.194Z,12.82
2018-05-01T01:48:13.352Z,12.56
2018-05-01T01:50:39.719Z,12.33
2018-05-01T01:53:06.625Z,12.33
2018-05-01T01:55:32.727Z,12.25
2018-05-01T01:57:58.926Z,12.17
2018-05-01T02:00:25.048Z,12.11
2018-05-01T02:02:51.162Z,11.86
2018-05-01T02:05:17.606Z,11.84
2018-05-01T02:07:43.689Z,11.75
2018-05-01T02:10:10.569Z,11.67
2018-05-01T02:12:37.449Z,11.65
2018-05-01T02:15:03.569Z,11.68
2018-05-01T02:17:29.799Z,11.46
2018-05-01T02:19:55.938Z,11.28
2018-05-01T02:22:22.125Z,11.25
2018-05-01T02:24:49.005Z,11.14
2018-05-01T02:27:15.265Z,11.07
2018-05-01T02:29:42.443Z,11.07
2018-05-01T02:32:09.304Z,11.03
2018-05-01T02:34:35.651Z,10.89
2018-05-01T02:37:01.848Z,10.80
2018-05-01T02:39:27.991Z,10.70
2018-05-01T02:41:54.093Z,10.64
2018-05-01T02:44:20.220Z,10.62
2018-05-01T02:46:47.084Z,10.65
2018-05-01T02:49:13.192Z,10.66
2018-05-01T02:51:39.313Z,10.72
2018-05-01T02:54:06.258Z,10.71
2018-05-01T02:56:33.181Z,10.74
2018-05-01T02:58:59.456Z,10.70
2018-05-01T03:01:25.745Z,10.61
2018-05-01T03:03:51.841Z,10.54
2018-05-01T03:06:17.991Z,10.62
2018-05-01T03:08:45.820Z,10.62
2018-05-01T03:11:12.216Z,10.70
2018-05-01T03:13:38.428Z,10.90
2018-05-01T03:16:05.610Z,10.65
2018-05-01T03:18:32.584Z,10.57
2018-05-01T03:20:58.744Z,10.54
2018-05-01T03:23:25.851Z,10.57
2018-05-01T03:25:52.018Z,10.57
2018-05-01T03:28:19.051Z,10.55
2018-05-01T03:30:45.227Z,10.48
2018-05-01T03:33:11.361Z,10.68
2018-05-01T03:35:37.551Z,10.75
2018-05-01T03:38:04.474Z,10.89
2018-05-01T03:40:30.615Z,10.78
2018-05-01T03:42:57.500Z,10.67
2018-05-01T03:45:23.630Z,10.60
2018-05-01T03:47:49.788Z,10.71
2018-05-01T03:50:15.990Z,10.72
2018-05-01T03:52:42.162Z,10.85
2018-05-01T03:55:09.048Z,10.80
2018-05-01T03:57:35.243Z,10.58
2018-05-01T04:00:01.494Z,10.43
2018-05-01T04:02:27.632Z,10.52
2018-05-01T04:04:53.867Z,10.57
2018-05-01T04:07:20.047Z,10.40
2018-05-01T04:09:47.125Z,10.38
2018-05-01T04:12:13.368Z,10.29
2018-05-01T04:14:39.563Z,10.23
2018-05-01T04:17:05.801Z,10.33
2018-05-01T04:19:31.917Z,10.44
2018-05-01T04:21:58.119Z,10.28
2018-05-01T04:24:24.289Z,10.27
2018-05-01T04:26:50.509Z,10.25
2018-05-01T04:29:16.753Z,10.15
2018-05-01T04:31:43.086Z,10.06
2018-05-01T04:34:09.347Z,10.18
2018-05-01T04:36:35.495Z,10.10
2018-05-01T04:39:02.121Z,9.89
2018-05-01T04:41:28.270Z,9.79
2018-05-01T04:43:54.545Z,9.68
2018-05-01T04:46:20.720Z,9.48
2018-05-01T04:48:47.601Z,9.62
2018-05-01T04:51:13.801Z,9.55
2018-05-01T04:53:40.717Z,9.46
2018-05-01T04:56:06.893Z,9.46
2018-05-01T04:58:33.047Z,9.30
2018-05-01T05:00:59.212Z,9.33
2018-05-01T05:03:25.381Z,9.35
2018-05-01T05:05:51.801Z,9.48
2018-05-01T05:08:17.946Z,9.26
2018-05-01T05:10:44.112Z,9.12
2018-05-01T05:13:10.305Z,9.24
2018-05-01T05:15:36.505Z,9.12
2018-05-01T05:18:02.786Z,9.14
2018-05-01T05:20:28.932Z,9.15
2018-05-01T05:22:55.064Z,9.29
2018-05-01T05:25:21.227Z,9.31
2018-05-01T05:27:47.498Z,9.43
2018-05-01T05:30:13.707Z,9.52
2018-05-01T05:32:39.895Z,9.53
2018-05-01T05:35:06.053Z,9.74
2018-05-01T05:37:32.205Z,9.72
2018-05-01T05:39:58.419Z,9.97
2018-05-01T05:42:24.588Z,9.92
2018-05-01T05:44:51.475Z,10.00
2018-05-01T05:47:17.659Z,10.06
2018-05-01T05:49:44.860Z,9.67
2018-05-01T05:52:11.025Z,9.83
2018-05-01T05:54:37.220Z,9.91
2018-05-01T05:57:03.383Z,10.02
2018-05-01T05:59:30.283Z,10.04
2018-05-01T06:01:56.448Z,10.17
2018-05-01T06:04:22.648Z,10.32
2018-05-01T06:06:48.815Z,10.19
2018-05-01T06:09:15.722Z,10.15
2018-05-01T06:11:41.876Z,10.02
2018-05-01T06:14:08.932Z,9.93
2018-05-01T06:16:35.961Z,9.96
2018-05-01T06:19:02.440Z,9.91
2018-05-01T06:21:28.589Z,9.83
2018-05-01T06:23:54.774Z,9.83
2018-05-01T06:26:21.723Z,9.64
2018-05-01T06:28:48.683Z,9.70
2018-05-01T06:31:14.961Z,9.62
2018-05-01T06:33:41.768Z,9.68
2018-05-01T06:36:07.996Z,9.72
2018-05-01T06:38:34.178Z,9.68
2018-05-01T06:41:01.083Z,9.54
2018-05-01T06:43:27.247Z,9.59
2018-05-01T06:45:53.464Z,9.77
2018-05-01T06:48:19.905Z,9.75
2018-05-01T06:50:46.795Z,9.89
2018-05-01T06:53:13.004Z,10.00
2018-05-01T06:55:39.144Z,9.93
2018-05-01T06:58:05.299Z,9.91
2018-05-01T07:00:31.436Z,10.12
2018-05-01T07:02:57.570Z,9.99
2018-05-01T07:05:24.510Z,10.25
2018-05-01T07:07:50.635Z,10.27
2018-05-01T07:10:16.957Z,10.50
2018-05-01T07:12:43.063Z,10.48
2018-05-01T07:15:09.349Z,10.44
2018-05-01T07:17:36.239Z,10.42
2018-05-01T07:20:03.410Z,10.56
2018-05-01T07:22:31.844Z,10.75
2018-05-01T07:24:58.163Z,10.92
2018-05-01T07:27:24.355Z,10.95
2018-05-01T07:29:51.283Z,11.13
2018-05-01T07:32:17.421Z,11.25
2018-05-01T07:34:44.342Z,11.32
2018-05-01T07:37:10.764Z,11.67
2018-05-01T07:39:36.931Z,11.06
2018-05-01T07:42:04.875Z,11.42
2018-05-01T07:44:31.373Z,11.59
2018-05-01T07:46:57.591Z,12.21
2018-05-01T07:49:24.858Z,12.04
2018-05-01T07:51:51.001Z,11.74
2018-05-01T07:54:17.207Z,11.44
2018-05-01T07:56:43.514Z,11.48
2018-05-01T07:59:10.419Z,11.70
2018-05-01T08:01:36.812Z,11.90
2018-05-01T08:04:03.570Z,12.18
2018-05-01T08:06:29.843Z,12.32
2018-05-01T08:08:56.036Z,12.59
2018-05-01T08:11:22.266Z,12.77
2018-05-01T08:13:48.417Z,12.62
2018-05-01T08:16:15.661Z,12.84
2018-05-01T08:18:41.846Z,12.95
2018-05-01T08:21:08.842Z,13.48
2018-05-01T08:23:35.000Z,13.54
2018-05-01T08:26:01.865Z,13.47
2018-05-01T08:28:28.040Z,13.71
2018-05-01T08:30:54.179Z,13.49
2018-05-01T08:33:21.111Z,13.75
2018-05-01T08:35:47.349Z,13.89
2018-05-01T08:38:13.557Z,13.75
2018-05-01T08:40:39.725Z,13.46
2018-05-01T08:43:06.620Z,13.28
2018-05-01T08:45:32.959Z,13.45
2018-05-01T08:47:59.994Z,13.73
2018-05-01T08:50:26.269Z,13.60
2018-05-01T08:52:53.168Z,13.39
2018-05-01T08:55:19.384Z,13.16
2018-05-01T08:57:45.518Z,13.10
2018-05-01T09:00:11.692Z,13.41
2018-05-01T09:02:38.598Z,13.10
2018-05-01T09:05:05.341Z,12.99
2018-05-01T09:07:31.551Z,12.96
2018-05-01T09:09:57.784Z,12.82
2018-05-01T09:12:24.000Z,12.92
2018-05-01T09:14:50.141Z,12.86
2018-05-01T09:17:16.341Z,12.74
2018-05-01T09:19:42.493Z,12.36
2018-05-01T09:22:08.700Z,12.72
2018-05-01T09:24:34.955Z,12.68
2018-05-01T09:27:01.088Z,13.01
2018-05-01T09:29:27.931Z,13.30
2018-05-01T09:31:54.357Z,13.77
2018-05-01T09:34:20.728Z,13.63
2018-05-01T09:36:47.625Z,13.58
2018-05-01T09:39:13.791Z,13.77
2018-05-01T09:41:40.800Z,13.61
2018-05-01T09:44:07.086Z,13.74
2018-05-01T09:46:34.016Z,13.66
2018-05-01T09:49:00.920Z,13.81
2018-05-01T09:51:27.107Z,14.12
2018-05-01T09:53:54.310Z,14.34
2018-05-01T09:56:20.858Z,13.81
2018-05-01T09:58:48.475Z,14.62
2018-05-01T10:01:14.980Z,14.68
2018-05-01T10:03:42.582Z,14.51
2018-05-01T10:06:09.076Z,14.35
2018-05-01T10:08:36.440Z,14.21
2018-05-01T10:11:03.612Z,14.23
2018-05-01T10:13:30.073Z,14.16
2018-05-01T10:15:56.494Z,14.31
2018-05-01T10:18:22.953Z,14.53
2018-05-01T10:20:49.519Z,15.13
2018-05-01T10:23:16.945Z,15.79
2018-05-01T10:25:43.610Z,15.86
2018-05-01T10:28:10.716Z,16.29
2018-05-01T10:30:37.469Z,16.32
2018-05-01T10:33:04.707Z,16.49
2018-05-01T10:35:31.231Z,16.15
2018-05-01T10:37:57.675Z,16.09
2018-05-01T10:40:24.342Z,16.04
2018-05-01T10:42:50.814Z,16.29
2018-05-01T10:45:17.856Z,16.38
2018-05-01T10:47:44.335Z,16.07
2018-05-01T10:50:12.224Z,15.69
2018-05-01T10:52:38.636Z,15.45
2018-05-01T10:55:05.367Z,15.49
2018-05-01T10:57:32.034Z,15.72
2018-05-01T10:59:58.539Z,15.43
2018-05-01T11:02:25.157Z,16.78
2018-05-01T11:04:51.627Z,17.12
2018-05-01T11:07:18.814Z,17.23
2018-05-01T11:09:45.285Z,16.87
2018-05-01T11:12:12.519Z,16.58
2018-05-01T11:14:39.083Z,16.83
2018-05-01T11:17:05.581Z,16.85
2018-05-01T11:19:32.040Z,16.26
2018-05-01T11:21:59.476Z,16.88
2018-05-01T11:24:26.264Z,16.49
2018-05-01T11:26:53.491Z,16.43
2018-05-01T11:29:19.942Z,16.65
2018-05-01T11:31:46.641Z,16.57
2018-05-01T11:34:13.443Z,16.68
2018-05-01T11:36:41.686Z,17.19
2018-05-01T11:39:08.244Z,16.87
2018-05-01T11:41:34.919Z,17.29
2018-05-01T11:44:01.384Z,17.99
2018-05-01T11:46:27.910Z,17.86
2018-05-01T11:48:55.000Z,17.74
2018-05-01T11:51:21.411Z,17.44
2018-05-01T11:53:48.440Z,18.05
2018-05-01T11:56:14.903Z,17.55
2018-05-01T11:58:41.343Z,18.12
2018-05-01T12:01:07.917Z,17.95
2018-05-01T12:03:34.395Z,18.46
2018-05-01T12:06:00.831Z,17.86
2018-05-01T12:08:27.291Z,17.42
2018-05-01T12:10:53.769Z,17.99
2018-05-01T12:13:20.252Z,17.83
2018-05-01T12:15:46.691Z,17.91
2018-05-01T12:18:13.375Z,16.40
2018-05-01T12:20:40.144Z,16.57
2018-05-01T12:23:06.593Z,16.42
2018-05-01T12:25:33.011Z,17.03
2018-05-01T12:27:59.538Z,17.28
2018-05-01T12:30:26.013Z,16.90
2018-05-01T12:32:52.715Z,16.94
2018-05-01T12:35:19.103Z,16.96
2018-05-01T12:37:46.279Z,17.10
2018-05-01T12:40:12.838Z,17.45
2018-05-01T12:42:39.309Z,17.26
2018-05-01T12:45:07.741Z,17.17
2018-05-01T12:47:34.243Z,17.59
2018-05-01T12:50:01.909Z,16.91
2018-05-01T12:52:28.490Z,17.51
2018-05-01T12:54:54.906Z,16.98
2018-05-01T12:57:21.296Z,16.79
2018-05-01T12:59:48.528Z,16.60
2018-05-01T13:02:14.954Z,17.09
2018-05-01T13:04:41.583Z,17.17
2018-05-01T13:07:08.255Z,16.52
2018-05-01T13:09:35.443Z,16.45
2018-05-01T13:12:01.854Z,16.32
2018-05-01T13:14:28.353Z,16.82
2018-05-01T13:16:55.539Z,17.20
2018-05-01T13:19:21.976Z,17.20
2018-05-01T13:21:48.510Z,17.04
2018-05-01T13:24:14.948Z,17.76
2018-05-01T13:26:41.391Z,17.39
2018-05-01T13:29:07.910Z,17.31
2018-05-01T13:31:34.378Z,17.71
2018-05-01T13:34:01.041Z,17.18
2018-05-01T13:36:27.457Z,16.81
2018-05-01T13:38:53.932Z,18.46
2018-05-01T13:41:21.121Z,20.20
2018-05-01T13:43:47.598Z,21.64
2018-05-01T13:46:14.790Z,22.27
2018-05-01T13:48:41.219Z,22.59
2018-05-01T13:51:08.447Z,21.68
2018-05-01T13:53:36.513Z,23.72
2018-05-01T13:56:03.286Z,24.53
2018-05-01T13:58:29.701Z,26.46
2018-05-01T14:00:56.148Z,26.24
2018-05-01T14:03:22.688Z,26.43
2018-05-01T14:05:49.193Z,28.22
2018-05-01T14:08:16.404Z,28.28
2018-05-01T14:10:42.820Z,29.99
2018-05-01T14:13:09.288Z,28.43
2018-05-01T14:15:35.732Z,29.06
2018-05-01T14:18:02.231Z,28.47
2018-05-01T14:20:28.663Z,28.40
2018-05-01T14:22:55.084Z,28.53
2018-05-01T14:25:21.714Z,28.13
2018-05-01T14:27:48.308Z,28.61
2018-05-01T14:30:14.814Z,28.53
2018-05-01T14:32:41.419Z,27.70
2018-05-01T14:35:07.904Z,30.80
2018-05-01T14:37:34.967Z,31.15
2018-05-01T14:40:02.193Z,30.72
2018-05-01T14:42:28.606Z,30.97
2018-05-01T14:44:55.034Z,31.60
2018-05-01T14:47:21.459Z,29.49
2018-05-01T14:49:47.910Z,26.12
2018-05-01T14:52:14.480Z,26.66
2018-05-01T14:54:40.978Z,27.78
2018-05-01T14:57:07.420Z,25.37
2018-05-01T14:59:33.857Z,25.27
2018-05-01T15:02:00.494Z,23.74
2018-05-01T15:04:26.972Z,22.95
2018-05-01T15:06:54.336Z,26.83
2018-05-01T15:09:20.864Z,27.80
2018-05-01T15:11:48.005Z,28.74
2018-05-01T15:14:15.160Z,30.11
2018-05-01T15:16:42.468Z,26.85
2018-05-01T15:19:08.939Z,23.76
2018-05-01T15:21:36.169Z,21.74
2018-05-01T15:24:02.681Z,23.67
2018-05-01T15:26:29.247Z,25.07
2018-05-01T15:28:55.700Z,25.94
2018-05-01T15:31:23.276Z,26.47
2018-05-01T15:33:50.536Z,27.79
2018-05-01T15:36:17.004Z,28.94
2018-05-01T15:38:43.501Z,30.88
2018-05-01T15:41:09.927Z,29.90
2018-05-01T15:43:37.117Z,28.13
2018-05-01T15:46:03.712Z,26.55
2018-05-01T15:48:38.815Z,29.18
2018-05-01T15:51:05.595Z,29.99
2018-05-01T15:53:32.008Z,26.55
2018-05-01T15:55:59.239Z,24.01
2018-05-01T15:58:25.659Z,25.79
2018-05-01T16:00:52.255Z,27.11
2018-05-01T16:03:18.955Z,28.92
2018-05-01T16:05:45.342Z,29.42
2018-05-01T16:08:11.781Z,30.20
2018-05-01T16:10:38.309Z,29.41
2018-05-01T16:13:04.854Z,29.75
2018-05-01T16:15:31.412Z,30.17
2018-05-01T16:18:04.959Z,31.19
2018-05-01T16:20:31.353Z,29.50
2018-05-01T16:22:57.960Z,29.76
2018-05-01T16:25:24.411Z,29.72
2018-05-01T16:27:51.373Z,28.75
2018-05-01T16:30:18.868Z,29.36
2018-05-01T16:32:45.449Z,28.36
2018-05-01T16:35:11.865Z,29.31
2018-05-01T16:37:38.255Z,29.66
2018-05-01T16:40:05.428Z,28.76
2018-05-01T16:42:31.969Z,29.93
2018-05-01T16:44:58.359Z,28.83
2018-05-01T16:47:25.531Z,29.45
2018-05-01T16:49:51.973Z,29.14
2018-05-01T16:52:18.536Z,28.89
2018-05-01T16:54:46.063Z,28.78
2018-05-01T16:57:12.505Z,27.67
2018-05-01T16:59:38.932Z,27.80
2018-05-01T17:02:05.482Z,28.43
2018-05-01T17:04:31.940Z,28.45
2018-05-01T17:06:58.442Z,28.13
2018-05-01T17:09:24.856Z,27.92
2018-05-01T17:11:52.131Z,27.91
2018-05-01T17:14:20.120Z,27.45
2018-05-01T17:16:47.405Z,27.60
2018-05-01T17:19:13.940Z,27.06
2018-05-01T17:21:40.450Z,27.17
2018-05-01T17:24:08.102Z,26.31
2018-05-01T17:26:34.570Z,25.94
2018-05-01T17:29:01.091Z,25.61
2018-05-01T17:31:27.615Z,25.12
2018-05-01T17:33:54.066Z,25.43
2018-05-01T17:36:20.540Z,23.15
2018-05-01T17:38:46.967Z,21.49
2018-05-01T17:41:13.428Z,19.81
2018-05-01T17:43:39.943Z,18.90
2018-05-01T17:46:06.476Z,18.37
2018-05-01T17:48:32.911Z,17.93
2018-05-01T17:50:59.336Z,17.30
2018-05-01T17:53:25.875Z,16.83
2018-05-01T17:55:52.384Z,16.95
2018-05-01T17:58:19.666Z,16.78
2018-05-01T18:00:46.148Z,16.60
2018-05-01T18:03:12.606Z,16.44
2018-05-01T18:05:39.815Z,16.25
2018-05-01T18:08:06.244Z,16.08
2018-05-01T18:10:32.968Z,15.86
2018-05-01T18:12:59.531Z,15.80
2018-05-01T18:15:26.015Z,15.68
2018-05-01T18:17:53.165Z,15.53
2018-05-01T18:20:20.366Z,15.22
2018-05-01T18:22:46.764Z,15.08
2018-05-01T18:25:13.232Z,14.77
2018-05-01T18:27:39.797Z,14.75
2018-05-01T18:30:06.250Z,14.57
2018-05-01T18:32:33.649Z,14.39
2018-05-01T18:35:00.499Z,14.37
2018-05-01T18:37:26.952Z,14.34
2018-05-01T18:39:53.871Z,14.13
2018-05-01T18:42:21.136Z,13.94
2018-05-01T18:44:47.780Z,13.88
2018-05-01T18:47:14.493Z,13.81
2018-05-01T18:49:40.944Z,13.76
2018-05-01T18:52:07.762Z,13.62
2018-05-01T18:54:35.125Z,13.58
2018-05-01T18:57:01.580Z,13.50
2018-05-01T18:59:28.354Z,13.47
2018-05-01T19:01:55.538Z,13.49
2018-05-01T19:04:22.510Z,13.44
2018-05-01T19:06:49.156Z,13.33
2018-05-01T19:09:15.668Z,13.17
2018-05-01T19:11:42.223Z,13.09
2018-05-01T19:14:08.915Z,13.07
2018-05-01T19:16:36.451Z,13.02
2018-05-01T19:19:03.941Z,13.02
2018-05-01T19:21:30.814Z,12.94
2018-05-01T19:23:57.742Z,12.89
2018-05-01T19:26:24.462Z,12.81
2018-05-01T19:28:51.137Z,12.90
2018-05-01T19:31:18.480Z,12.95
2018-05-01T19:33:45.486Z,12.98
2018-05-01T19:36:12.861Z,13.06
2018-05-01T19:38:39.425Z,12.99
2018-05-01T19:41:05.875Z,12.88
2018-05-01T19:43:33.125Z,12.95
2018-05-01T19:45:59.942Z,12.78
2018-05-01T19:48:26.428Z,12.74
2018-05-01T19:50:53.837Z,12.64
2018-05-01T19:53:20.353Z,12.52
2018-05-01T19:55:47.036Z,12.59
2018-05-01T19:58:14.325Z,12.51
2018-05-01T20:00:41.313Z,12.47
2018-05-01T20:03:08.903Z,12.39
2018-05-01T20:05:35.277Z,12.29
2018-05-01T20:08:01.734Z,12.19
2018-05-01T20:10:28.177Z,12.18
2018-05-01T20:12:54.723Z,12.23
2018-05-01T20:15:21.281Z,12.23
2018-05-01T20:17:47.770Z,12.11
2018-05-01T20:20:14.323Z,12.12
2018-05-01T20:22:41.113Z,12.00
2018-05-01T20:25:07.527Z,11.81
2018-05-01T20:27:33.933Z,11.90
2018-05-01T20:30:00.677Z,11.79
2018-05-01T20:32:27.290Z,11.66
2018-05-01T20:34:53.796Z,11.70
2018-05-01T20:37:20.193Z,11.70
2018-05-01T20:39:47.824Z,11.61
2018-05-01T20:42:14.295Z,11.53
2018-05-01T20:44:41.424Z,11.45
2018-05-01T20:47:07.849Z,11.54
2018-05-01T20:49:34.284Z,11.43
2018-05-01T20:52:00.991Z,11.41
2018-05-01T20:54:27.389Z,11.39
2018-05-01T20:56:54.600Z,11.39
2018-05-01T20:59:21.032Z,11.29
2018-05-01T21:01:47.629Z,11.21
2018-05-01T21:04:14.121Z,11.19
2018-05-01T21:06:40.501Z,11.16
2018-05-01T21:09:06.963Z,11.21
2018-05-01T21:11:33.355Z,11.11
2018-05-01T21:14:00.636Z,11.23
2018-05-01T21:16:27.066Z,11.23
2018-05-01T21:18:53.451Z,11.18
2018-05-01T21:21:20.599Z,11.17
2018-05-01T21:23:46.996Z,11.06
2018-05-01T21:26:13.481Z,10.98
2018-05-01T21:28:40.659Z,10.88
2018-05-01T21:31:07.070Z,10.87
2018-05-01T21:33:34.259Z,10.99
2018-05-01T21:36:00.740Z,10.77
2018-05-01T21:38:27.893Z,10.72
2018-05-01T21:40:55.010Z,10.63
2018-05-01T21:43:21.450Z,10.62
2018-05-01T21:45:48.435Z,10.56
2018-05-01T21:48:16.934Z,10.56
2018-05-01T21:50:43.664Z,10.51
2018-05-01T21:53:10.527Z,10.61
2018-05-01T21:55:36.923Z,10.66
2018-05-01T21:58:04.153Z,10.69
2018-05-01T22:00:30.600Z,10.81
2018-05-01T22:02:57.736Z,10.83
2018-05-01T22:05:24.416Z,10.75
2018-05-01T22:07:50.932Z,10.79
2018-05-01T22:10:17.420Z,10.84
2018-05-01T22:12:43.865Z,10.71
2018-05-01T22:15:10.554Z,10.71
2018-05-01T22:17:36.937Z,10.79
2018-05-01T22:20:03.330Z,10.74
2018-05-01T22:22:29.800Z,10.77
2018-05-01T22:24:56.231Z,10.70
2018-05-01T22:27:22.921Z,10.64
2018-05-01T22:29:49.420Z,10.75
2018-05-01T22:32:15.839Z,10.67
2018-05-01T22:34:42.832Z,10.65
2018-05-01T22:37:10.134Z,10.65
2018-05-01T22:39:36.550Z,10.59
2018-05-01T22:42:02.991Z,10.63
2018-05-01T22:44:29.395Z,10.55
2018-05-01T22:46:57.368Z,10.41
2018-05-01T22:49:23.794Z,10.36
2018-05-01T22:51:50.332Z,10.22
2018-05-01T22:54:16.736Z,10.16
2018-05-01T22:56:43.953Z,10.06
2018-05-01T22:59:10.343Z,10.29
2018-05-01T23:01:36.788Z,10.24
2018-05-01T23:04:03.341Z,10.28
2018-05-01T23:06:30.019Z,10.22
2018-05-01T23:08:57.141Z,10.24
2018-05-01T23:11:23.674Z,10.24
2018-05-01T23:13:50.123Z,10.23
2018-05-01T23:16:16.511Z,10.15
2018-05-01T23:18:42.959Z,10.07
2018-05-01T23:21:09.667Z,10.09
2018-05-01T23:23:36.091Z,10.11
2018-05-01T23:26:03.237Z,10.03
2018-05-01T23:28:30.424Z,10.00
2018-05-01T23:30:56.966Z,10.06
2018-05-01T23:33:23.386Z,10.11
2018-05-01T23:35:49.796Z,10.17
2018-05-01T23:38:16.290Z,10.20
2018-05-01T23:40:42.808Z,10.20
2018-05-01T23:43:09.521Z,10.22
2018-05-01T23:45:36.177Z,10.32
2018-05-01T23:48:02.599Z,10.22
2018-05-01T23:50:29.327Z,10.12
2018-05-01T23:52:56.069Z,10.00
2018-05-01T23:55:22.648Z,9.97
2018-05-01T23:57:49.505Z,9.90
